Flight Track Log - Related Links

Times and Time Zones

All times are in EDT time to prevent confusion due to time zone crossing. See the AAL832 flight status page for this flight to view local times or setup timezone preferences in your user account.

Time Position Orientation Groundspeed Altitude Reporting Facility
EDT Latitude Longitude Course Direction KTS MPH feet Rate Location/Type
Tue 12:59:57 PM 33.9300 -118.4540 247° West 192 221 1,600  Level FlightAware ADS-B
Tue 01:00:13 PM 33.9210 -118.4690 234° Southwest 204 235 2,000 1,174 Climbing FlightAware ADS-B
Tue 01:00:43 PM 33.9010 -118.4990 231° Southwest 242 278 2,500 1,424 Climbing FlightAware ADS-B
Tue 01:01:12 PM 33.8730 -118.5200 212° Southwest 262 302 3,400 1,846 Climbing FlightAware ADS-B
Tue 01:01:22 PM 33.8620 -118.5210 184° South 266 306 3,700 1,941 Climbing FlightAware ADS-B
Tue 01:01:46 PM 33.8300 -118.5200 179° South 278 320 4,500 2,182 Climbing FlightAware ADS-B
Tue 01:02:17 PM 33.7900 -118.5210 181° South 282 325 5,700 2,217 Climbing FlightAware ADS-B
Tue 01:02:32 PM 33.7700 -118.5210 180° South 288 331 6,200 1,857 Climbing FlightAware ADS-B
Tue 01:02:59 PM 33.7380 -118.5210 180° South 294 338 7,000 2,172 Climbing FlightAware ADS-B
Tue 01:03:30 PM 33.6980 -118.5040 161° South 304 350 8,300 2,400 Climbing FlightAware ADS-B
Tue 01:03:44 PM 33.6850 -118.4810 124° Southeast 311 358 8,800 2,333 Climbing FlightAware ADS-B
Tue 01:04:24 PM 33.6660 -118.4150 109° East 318 366 10,400 1,976 Climbing FlightAware ADS-B
Tue 01:05:09 PM 33.6460 -118.3360 107° East 350 403 11,600 1,412 Climbing FlightAware ADS-B
Tue 01:06:06 PM 33.6450 -118.2190 91° East 394 453 12,800 1,768 Climbing FlightAware ADS-B
Tue 01:07:01 PM 33.6450 -118.0940 90° East 407 468 14,900 2,412 Climbing FlightAware ADS-B
Tue 01:07:43 PM 33.6440 -117.9950 91° East 415 478 16,700 2,341 Climbing FlightAware ADS-B
Tue 01:08:23 PM 33.6440 -117.9050 90° East 425 489 18,100 2,122 Climbing FlightAware ADS-B
Tue 01:09:05 PM 33.6440 -117.8030 90° East 437 503 19,600 1,929 Climbing FlightAware ADS-B
Tue 01:09:47 PM 33.6440 -117.6970 90° East 453 521 20,800 1,860 Climbing FlightAware ADS-B
Tue 01:10:45 PM 33.6430 -117.5490 90° East 466 536 22,700 1,431 Climbing FlightAware ADS-B
Tue 01:11:57 PM 33.6420 -117.4450 91° East 472 543 23,900 1,590 Climbing FlightAware ADS-B
Tue 01:12:42 PM 33.6410 -117.2430 90° East 494 568 25,800 2,000 Climbing FlightAware ADS-B
Tue 01:13:24 PM 33.6400 -117.1250 91° East 503 579 26,800 1,407 Climbing FlightAware ADS-B
Tue 01:14:03 PM 33.6390 -117.0170 91° East 510 587 27,700 1,373 Climbing FlightAware ADS-B
Tue 01:14:47 PM 33.6380 -116.8900 91° East 517 595 28,700 1,350 Climbing FlightAware ADS-B
Tue 01:15:23 PM 33.6370 -116.7850 91° East 522 601 29,500 1,395 Climbing FlightAware ADS-B
Tue 01:16:13 PM 33.6460 -116.6460 86° East 525 604 30,700 1,432 Climbing FlightAware ADS-B
Tue 01:16:51 PM 33.6720 -116.5360 74° East 528 608 31,600 1,244 Climbing FlightAware ADS-B
Tue 01:17:35 PM 33.7010 -116.4140 74° East 529 609 32,400 565 Climbing FlightAware ADS-B
Tue 01:18:16 PM 33.7260 -116.3160 73° East 529 609 32,400  Level FlightAware ADS-B
Tue 01:19:16 PM 33.7630 -116.1720 73° East 529 609 32,400  Level FlightAware ADS-B
Tue 01:19:53 PM 33.7850 -116.0840 73° East 529 609 32,400  Level FlightAware ADS-B
Tue 01:20:17 PM 33.8000 -116.0260 73° East 529 609 32,400  Level FlightAware ADS-B
Tue 01:21:27 PM 33.8420 -115.8590 73° East 529 609 32,400  Level FlightAware ADS-B
Tue 01:22:05 PM 33.8650 -115.7670 73° East 529 609 32,400  Level FlightAware ADS-B
Tue 01:23:07 PM 33.9030 -115.6190 73° East 529 609 32,400  Level FlightAware ADS-B
Tue 01:23:43 PM 33.9250 -115.5330 73° East 529 609 32,400  Level FlightAware ADS-B
Tue 01:24:31 PM 33.9540 -115.4170 73° East 529 609 32,400  Level FlightAware ADS-B
Tue 01:25:06 PM 33.9750 -115.3340 73° East 529 609 32,400  Level FlightAware ADS-B
Tue 01:25:45 PM 33.9990 -115.2400 73° East 529 609 32,400  Level FlightAware ADS-B
Tue 01:26:36 PM 34.0300 -115.1180 73° East 529 609 32,400  Level FlightAware ADS-B
Tue 01:27:12 PM 34.0520 -115.0310 73° East 529 609 32,400 1,551 Level FlightAware ADS-B
Tue 01:29:34 PM 34.1730 -114.4320 76° East 505 581 37,000 1,476 Climbing FlightAware ADS-B
Tue 01:30:19 PM 34.2050 -114.3160 72° East 505 581 37,000  Level FlightAware ADS-B
Tue 01:31:00 PM 34.2380 -114.1990 71° East 505 581 37,000  Level FlightAware ADS-B
Tue 01:31:40 PM 34.2670 -114.0930 72° East 506 582 37,000  Level FlightAware ADS-B
Tue 01:32:22 PM 34.2990 -113.9790 71° East 506 582 37,000  Level FlightAware ADS-B
Tue 01:33:07 PM 34.3320 -113.8590 72° East 506 582 37,000  Level FlightAware ADS-B
Tue 01:33:46 PM 34.3610 -113.7530 72° East 507 583 37,000  Level FlightAware ADS-B
Tue 01:34:31 PM 34.3930 -113.6350 72° East 507 583 37,000  Level FlightAware ADS-B
Tue 01:35:52 PM 34.4530 -113.4150 72° East 507 583 37,000  Level FlightAware ADS-B
Tue 01:36:33 PM 34.4830 -113.3070 71° East 506 582 37,000  Level FlightAware ADS-B
Tue 01:37:11 PM 34.5110 -113.2020 72° East 506 582 37,000  Level FlightAware ADS-B
Tue 01:37:56 PM 34.5440 -113.0800 72° East 506 582 37,000  Level FlightAware ADS-B
Tue 01:38:38 PM 34.5740 -112.9680 72° East 506 582 37,000  Level FlightAware ADS-B
Tue 01:39:18 PM 34.6020 -112.8600 72° East 504 580 37,000  Level FlightAware ADS-B
Tue 01:40:00 PM 34.6320 -112.7470 72° East 502 578 37,000  Level FlightAware ADS-B
Tue 01:40:44 PM 34.6640 -112.6280 72° East 502 578 37,000  Level FlightAware ADS-B
Tue 01:41:28 PM 34.6950 -112.5110 72° East 502 578 37,000  Level FlightAware ADS-B
Tue 01:42:07 PM 34.7210 -112.4060 73° East 503 579 37,000  Level FlightAware ADS-B
Tue 01:42:48 PM 34.7460 -112.2940 75° East 503 579 37,000  Level FlightAware ADS-B
Tue 01:43:32 PM 34.7730 -112.1720 75° East 505 581 37,000  Level FlightAware ADS-B
Tue 01:44:14 PM 34.7990 -112.0580 74° East 504 580 37,000  Level FlightAware ADS-B
Tue 01:44:56 PM 34.8250 -111.9450 74° East 504 580 37,000  Level FlightAware ADS-B
Tue 01:45:56 PM 34.8620 -111.7800 75° East 505 581 37,000  Level FlightAware ADS-B
Tue 01:46:34 PM 34.8860 -111.6750 74° East 507 583 37,000  Level FlightAware ADS-B
Tue 01:47:21 PM 34.9140 -111.5470 75° East 507 583 37,000  Level FlightAware ADS-B
Tue 01:48:02 PM 34.9390 -111.4340 75° East 507 583 37,000  Level FlightAware ADS-B
Tue 01:48:38 PM 34.9610 -111.3350 75° East 506 582 37,000  Level FlightAware ADS-B
Tue 01:49:27 PM 34.9840 -111.2320 75° East 506 582 37,000  Level FlightAware ADS-B
Tue 01:50:02 PM 35.0120 -111.1030 75° East 506 582 37,000  Level FlightAware ADS-B
Tue 01:50:49 PM 35.0400 -110.9740 75° East 507 583 37,000  Level FlightAware ADS-B
Tue 01:51:28 PM 35.0640 -110.8650 75° East 508 585 37,000  Level FlightAware ADS-B
Tue 01:52:27 PM 35.0940 -110.7280 75° East 510 587 37,000  Level FlightAware ADS-B
Tue 01:53:10 PM 35.1250 -110.5810 76° East 513 590 37,000  Level FlightAware ADS-B
Tue 01:53:51 PM 35.1480 -110.4720 76° East 512 589 37,000  Level FlightAware ADS-B
Tue 01:54:32 PM 35.1740 -110.3510 75° East 512 589 37,000  Level FlightAware ADS-B
Tue 01:55:10 PM 35.1960 -110.2440 76° East 510 587 37,000  Level FlightAware ADS-B
Tue 01:55:59 PM 35.2240 -110.1100 76° East 508 585 37,000  Level FlightAware ADS-B
Tue 01:56:40 PM 35.2470 -110.0000 76° East 508 585 37,000  Level FlightAware ADS-B
Tue 01:57:12 PM 35.2670 -109.9070 75° East 508 585 37,000  Level FlightAware ADS-B
Tue 01:58:00 PM 35.2940 -109.7730 76° East 508 585 37,000  Level FlightAware ADS-B
Tue 01:58:40 PM 35.3170 -109.6640 75° East 509 586 37,000  Level FlightAware ADS-B
Tue 01:59:24 PM 35.3420 -109.5390 76° East 510 587 37,000  Level FlightAware ADS-B
Tue 02:00:02 PM 35.3640 -109.4330 76° East 510 587 37,000  Level FlightAware ADS-B
Tue 02:00:49 PM 35.3860 -109.3230 76° East 510 587 37,000  Level FlightAware ADS-B
Tue 02:01:28 PM 35.4120 -109.1920 76° East 509 586 37,000  Level FlightAware ADS-B
Tue 02:02:04 PM 35.4320 -109.0920 76° East 509 586 37,000  Level FlightAware ADS-B
Tue 02:02:54 PM 35.4570 -108.9720 76° East 509 586 37,000  Level FlightAware ADS-B
Tue 02:03:34 PM 35.4760 -108.8770 76° East 509 586 37,000  Level FlightAware ADS-B
Tue 02:04:10 PM 35.4930 -108.7910 76° East 509 586 37,000  Level FlightAware ADS-B
Tue 02:04:46 PM 35.5110 -108.7050 76° East 509 586 37,000  Level FlightAware ADS-B
Tue 02:05:35 PM 35.5340 -108.5880 76° East 509 586 37,000  Level FlightAware ADS-B
Tue 02:06:14 PM 35.6040 -108.4030 65° Northeast 506 582 37,000  Level FlightAware ADS-B
Tue 02:06:50 PM 35.6300 -108.3040 72° East 506 582 37,000  Level FlightAware ADS-B
Tue 02:07:34 PM 35.6620 -108.1850 72° East 507 583 37,000  Level FlightAware ADS-B
Tue 02:08:16 PM 35.6920 -108.0700 72° East 507 583 37,000  Level FlightAware ADS-B
Tue 02:08:52 PM 35.7190 -107.9700 72° East 507 583 37,000  Level FlightAware ADS-B
Tue 02:09:50 PM 35.7600 -107.8160 72° East 505 581 37,000  Level FlightAware ADS-B
Tue 02:10:42 PM 35.7980 -107.6700 72° East 505 581 37,000  Level FlightAware ADS-B
Tue 02:11:58 PM 35.8520 -107.4630 72° East 503 579 37,000  Level FlightAware ADS-B
Tue 02:12:40 PM 35.8820 -107.3480 72° East 503 579 37,000  Level FlightAware ADS-B
Tue 02:13:24 PM 35.9120 -107.2290 73° East 504 580 37,000  Level FlightAware ADS-B
Tue 02:14:04 PM 35.9410 -107.1180 72° East 504 580 37,000  Level FlightAware ADS-B
Tue 02:14:40 PM 35.9650 -107.0220 73° East 504 580 37,000  Level FlightAware ADS-B
Tue 02:15:43 PM 36.0050 -106.8710 72° East 504 580 37,000  Level FlightAware ADS-B
Tue 02:16:32 PM 36.0440 -106.7130 73° East 506 582 37,000  Level FlightAware ADS-B
Tue 02:17:16 PM 36.0730 -106.5950 73° East 506 582 37,000  Level FlightAware ADS-B
Tue 02:17:56 PM 36.1020 -106.4800 73° East 508 585 37,000  Level FlightAware ADS-B
Tue 02:18:30 PM 36.1260 -106.3860 72° East 509 586 37,000  Level FlightAware ADS-B
Tue 02:19:18 PM 36.1590 -106.2530 73° East 508 585 37,000  Level FlightAware ADS-B
Tue 02:19:56 PM 36.1840 -106.1490 73° East 508 585 37,000  Level FlightAware ADS-B
Tue 02:20:32 PM 36.2090 -106.0490 73° East 509 586 37,000  Level FlightAware ADS-B
Tue 02:21:14 PM 36.2380 -105.9300 73° East 508 585 37,000  Level FlightAware ADS-B
Tue 02:21:45 PM 36.2560 -105.8560 73° East 508 585 37,000  Level FlightAware ADS-B
Tue 02:22:21 PM 36.2780 -105.7710 72° East 508 585 37,000  Level FlightAware ADS-B
Tue 02:22:57 PM 36.2990 -105.6860 73° East 508 585 37,000  Level FlightAware ADS-B
Tue 02:23:45 PM 36.3270 -105.5720 73° East 508 585 37,000  Level FlightAware ADS-B
Tue 02:24:21 PM 36.3480 -105.4870 73° East 508 585 37,000  Level FlightAware ADS-B
Tue 02:25:21 PM 36.3830 -105.3440 73° East 508 585 37,000  Level FlightAware ADS-B
Tue 02:25:57 PM 36.4040 -105.2590 73° East 508 585 37,000  Level FlightAware ADS-B
Tue 02:26:46 PM 36.4320 -105.1430 73° East 508 585 37,000  Level FlightAware ADS-B
Tue 02:27:21 PM 36.4831 -104.9060 75° East 507 583 37,000  Level FlightAware ADS-B
Tue 02:27:58 PM 36.5080 -104.8030 73° East 507 583 37,000  Level FlightAware ADS-B
Tue 02:28:56 PM 36.5080 -104.8340 270° West 508 585 37,000  Level FlightAware ADS-B
Tue 02:29:35 PM 36.5310 -104.7410 73° East 508 585 37,000  Level FlightAware ADS-B
Tue 02:30:23 PM 36.5590 -104.6270 73° East 508 585 37,000  Level FlightAware ADS-B
Tue 02:30:58 PM 36.5790 -104.5440 73° East 508 585 37,000  Level FlightAware ADS-B
Tue 02:33:11 PM 36.7461 -103.9550 70° East 495 570 37,000  Level FlightAware ADS-B
Tue 02:33:44 PM 36.7772 -103.8700 65° Northeast 496 571 37,000  Level FlightAware ADS-B
Tue 02:34:15 PM 36.8059 -103.7900 66° East 497 572 37,000  Level FlightAware ADS-B
Tue 02:34:50 PM 36.8391 -103.6980 66° East 499 574 37,000  Level FlightAware ADS-B
Tue 02:35:25 PM 36.8713 -103.6070 66° East 500 575 37,000  Level FlightAware ADS-B
Tue 02:35:55 PM 36.8998 -103.5260 66° East 501 577 37,000  Level FlightAware ADS-B
Tue 02:36:28 PM 36.9304 -103.4400 66° East 501 577 37,000  Level FlightAware ADS-B
Tue 02:36:59 PM 36.9600 -103.3570 66° East 501 577 37,000  Level FlightAware ADS-B
Tue 02:37:30 PM 36.9884 -103.2770 66° East 501 577 37,000  Level FlightAware ADS-B
Tue 02:37:39 PM 36.9975 -103.2510 66° East 500 575 37,000  Level FlightAware ADS-B
Tue 02:38:00 PM 37.0170 -103.1960 66° East 500 575 37,000  Level FlightAware ADS-B
Tue 02:38:10 PM 37.0261 -103.1700 66° East 499 574 37,000  Level FlightAware ADS-B
Tue 02:38:33 PM 37.0472 -103.1110 66° East 499 574 37,000  Level FlightAware ADS-B
Tue 02:38:40 PM 37.0543 -103.0900 67° East 499 574 37,000  Level FlightAware ADS-B
Tue 02:39:03 PM 37.0758 -103.0300 66° East 497 572 37,000  Level FlightAware ADS-B
Tue 02:39:10 PM 37.0822 -103.0110 67° East 497 572 37,000  Level FlightAware ADS-B
Tue 02:39:21 PM 37.0922 -102.9830 66° East 497 572 37,000  Level FlightAware ADS-B
Tue 02:39:40 PM 37.1098 -102.9330 66° East 497 572 37,000  Level FlightAware ADS-B
Tue 02:39:52 PM 37.1202 -102.9030 66° East 496 571 37,000  Level FlightAware ADS-B
Tue 02:40:11 PM 37.1383 -102.8510 66° East 495 570 37,000  Level FlightAware ADS-B
Tue 02:40:25 PM 37.1506 -102.8160 66° East 495 570 37,000  Level FlightAware ADS-B
Tue 02:40:41 PM 37.1656 -102.7720 67° East 495 570 37,000  Level FlightAware ADS-B
Tue 02:40:57 PM 37.1800 -102.7310 66° East 495 570 37,000  Level FlightAware ADS-B
Tue 02:41:14 PM 37.1953 -102.6880 66° East 494 568 37,000  Level FlightAware ADS-B
Tue 02:41:37 PM 37.2213 -102.6290 61° Northeast 490 564 37,000  Level FlightAware ADS-B
Tue 02:41:44 PM 37.2285 -102.6130 61° Northeast 489 563 37,000  Level FlightAware ADS-B
Tue 02:42:08 PM 37.2562 -102.5540 59° Northeast 489 563 37,000  Level FlightAware ADS-B
Tue 02:42:14 PM 37.2628 -102.5400 59° Northeast 489 563 37,000  Level FlightAware ADS-B
Tue 02:42:39 PM 37.2914 -102.4790 59° Northeast 489 563 37,000  Level FlightAware ADS-B
Tue 02:42:49 PM 37.3030 -102.4550 59° Northeast 489 563 37,000  Level FlightAware ADS-B
Tue 02:43:19 PM 37.3376 -102.3820 59° Northeast 488 562 37,000  Level FlightAware ADS-B
Tue 02:43:58 PM 37.3829 -102.2870 59° Northeast 488 562 37,000 254 Level FlightAware ADS-B
Tue 02:44:30 PM 37.4202 -102.2090 59° Northeast 491 565 37,300 762 Climbing FlightAware ADS-B
Tue 02:45:01 PM 37.4563 -102.1330 59° Northeast 491 565 37,800 857 Climbing FlightAware ADS-B
Tue 02:46:01 PM 37.5265 -101.9860 59° Northeast 489 563 38,600 733 Climbing FlightAware ADS-B
Tue 02:46:31 PM 37.5620 -101.9130 58° Northeast 489 563 38,900 393 Climbing FlightAware ADS-B
Tue 02:47:02 PM 37.5983 -101.8390 58° Northeast 490 564 39,000 94 Climbing FlightAware ADS-B
Tue 02:47:35 PM 37.6379 -101.7590 58° Northeast 492 566 39,000  Level FlightAware ADS-B
Tue 02:48:14 PM 37.6852 -101.6630 58° Northeast 492 566 39,000  Level FlightAware ADS-B
Tue 02:51:10 PM 37.8981 -101.2380 57° Northeast 487 560 39,000  Level FlightAware ADS-B
Tue 02:51:47 PM 37.9424 -101.1510 57° Northeast 488 562 39,000  Level FlightAware ADS-B
Tue 02:52:18 PM 37.9806 -101.0750 57° Northeast 488 562 39,000  Level FlightAware ADS-B
Tue 02:52:48 PM 38.0174 -101.0020 57° Northeast 487 560 39,000  Level FlightAware ADS-B
Tue 02:53:19 PM 38.0549 -100.9280 57° Northeast 488 562 39,000  Level FlightAware ADS-B
Tue 02:53:50 PM 38.0920 -100.8550 57° Northeast 488 562 39,000  Level FlightAware ADS-B
Tue 02:54:21 PM 38.1311 -100.7790 57° Northeast 489 563 39,000  Level FlightAware ADS-B
Tue 02:54:59 PM 38.1770 -100.6890 57° Northeast 488 562 39,000  Level FlightAware ADS-B
Tue 02:55:29 PM 38.2129 -100.6180 57° Northeast 474 545 39,000  Level FlightAware ADS-B
Tue 02:55:59 PM 38.2486 -100.5480 57° Northeast 471 542 39,000  Level FlightAware ADS-B
Tue 02:56:31 PM 38.2858 -100.4750 57° Northeast 474 545 39,000  Level FlightAware ADS-B
Tue 02:56:39 PM 38.2947 -100.4550 60° Northeast 476 548 39,000  Level FlightAware ADS-B
Tue 02:56:58 PM 38.3121 -100.4050 66° East 479 551 39,000  Level FlightAware ADS-B
Tue 02:57:29 PM 38.3340 -100.3240 71° East 480 552 39,000  Level FlightAware ADS-B
Tue 02:58:00 PM 38.3562 -100.2410 71° East 481 554 39,000  Level FlightAware ADS-B
Tue 02:58:31 PM 38.3791 -100.1570 71° East 483 556 39,000  Level FlightAware ADS-B
Tue 02:59:01 PM 38.4009 -100.0760 71° East 483 556 39,000  Level FlightAware ADS-B
Tue 02:59:38 PM 38.4276 -99.9763 71° East 483 556 39,000  Level FlightAware ADS-B
Tue 03:00:30 PM 38.4640 -99.8410 71° East 481 554 39,000  Level FlightAware ADS-B
Tue 03:01:13 PM 38.4962 -99.7213 71° East 482 555 39,000  Level FlightAware ADS-B
Tue 03:01:51 PM 38.5200 -99.6330 71° East 479 551 39,000  Level FlightAware ADS-B
Tue 03:03:46 PM 38.6030 -99.3180 71° East 469 540 39,000  Level FlightAware ADS-B
Tue 03:04:24 PM 38.6260 -99.2290 72° East 468 539 39,000  Level FlightAware ADS-B
Tue 03:05:20 PM 38.6530 -99.0680 78° East 468 539 39,000  Level FlightAware ADS-B
Tue 03:05:59 PM 38.6690 -98.9780 77° East 468 539 39,000  Level FlightAware ADS-B
Tue 03:07:54 PM 38.7260 -98.6530 77° East 467 537 39,000  Level FlightAware ADS-B
Tue 03:08:34 PM 38.7450 -98.5450 77° East 467 537 39,000  Level FlightAware ADS-B
Tue 03:09:16 PM 38.7650 -98.4300 77° East 467 537 39,000  Level FlightAware ADS-B
Tue 03:10:00 PM 38.7830 -98.3120 79° East 468 539 39,000  Level FlightAware ADS-B
Tue 03:10:32 PM 38.7960 -98.2240 79° East 469 540 39,000  Level FlightAware ADS-B
Tue 03:11:52 PM 38.8260 -98.0290 79° East 469 540 39,000  Level FlightAware ADS-B
Tue 03:12:30 PM 38.8460 -97.9040 78° East 471 542 39,000  Level FlightAware ADS-B
Tue 03:13:10 PM 38.8630 -97.7940 79° East 471 542 39,000  Level FlightAware ADS-B
Tue 03:13:54 PM 38.8820 -97.6720 79° East 470 541 39,000  Level FlightAware ADS-B
Tue 03:14:38 PM 38.9020 -97.5540 78° East 470 541 39,000  Level FlightAware ADS-B
Tue 03:15:07 PM 38.9140 -97.4770 79° East 470 541 39,000  Level FlightAware ADS-B
Tue 03:15:49 PM 38.9340 -97.3600 78° East 469 540 39,000  Level FlightAware ADS-B
Tue 03:16:51 PM 38.9630 -97.1950 77° East 468 539 39,000  Level FlightAware ADS-B
Tue 03:17:31 PM 38.9800 -97.0830 79° East 466 536 39,000  Level FlightAware ADS-B
Tue 03:18:17 PM 38.9980 -96.9620 79° East 465 535 39,000  Level FlightAware ADS-B
Tue 03:18:57 PM 39.0160 -96.8490 78° East 466 536 39,000  Level FlightAware ADS-B
Tue 03:19:39 PM 39.0330 -96.7370 79° East 465 535 39,000  Level FlightAware ADS-B
Tue 03:21:05 PM 39.0680 -96.5050 79° East 466 536 39,000  Level FlightAware ADS-B
Tue 03:21:45 PM 39.0810 -96.3950 81° East 467 537 39,000  Level FlightAware ADS-B
Tue 03:22:25 PM 39.0930 -96.2840 82° East 469 540 39,000  Level FlightAware ADS-B
Tue 03:23:09 PM 39.1060 -96.1630 82° East 469 540 39,000  Level FlightAware ADS-B
Tue 03:23:50 PM 39.1200 -96.0530 81° East 471 542 39,000  Level FlightAware ADS-B
Tue 03:24:31 PM 39.1370 -95.9400 79° East 472 543 39,000  Level FlightAware ADS-B
Tue 03:25:15 PM 39.1570 -95.8150 78° East 472 543 39,000  Level FlightAware ADS-B
Tue 03:26:05 PM 39.1640 -95.7720 78° East 473 544 39,000  Level FlightAware ADS-B
Tue 03:27:01 PM 39.2080 -95.5250 77° East 472 543 39,000  Level FlightAware ADS-B
Tue 03:27:37 PM 39.2260 -95.4260 77° East 472 543 39,000  Level FlightAware ADS-B
Tue 03:28:17 PM 39.2490 -95.3160 75° East 472 543 39,000  Level FlightAware ADS-B
Tue 03:28:57 PM 39.2720 -95.2090 74° East 472 543 39,000  Level FlightAware ADS-B
Tue 03:29:39 PM 39.2980 -95.0950 74° East 472 543 39,000  Level FlightAware ADS-B
Tue 03:30:15 PM 39.3210 -94.9980 73° East 471 542 39,000  Level FlightAware ADS-B
Tue 03:31:06 PM 39.3570 -94.8640 71° East 472 543 39,000  Level FlightAware ADS-B
Tue 03:31:46 PM 39.3860 -94.7560 71° East 472 543 39,000  Level FlightAware ADS-B
Tue 03:32:30 PM 39.4190 -94.6400 70° East 472 543 39,000  Level FlightAware ADS-B
Tue 03:33:11 PM 39.4500 -94.5330 69° East 474 545 39,000  Level FlightAware ADS-B
Tue 03:33:51 PM 39.4820 -94.4270 69° East 475 547 39,000  Level FlightAware ADS-B
Tue 03:34:24 PM 39.5090 -94.3380 69° East 476 548 39,000  Level FlightAware ADS-B
Tue 03:35:08 PM 39.5460 -94.2240 67° East 476 548 39,000  Level FlightAware ADS-B
Tue 03:36:20 PM 39.5820 -94.1250 65° Northeast 477 549 39,000  Level FlightAware ADS-B
Tue 03:36:56 PM 39.6490 -93.9440 64° Northeast 477 549 39,000  Level FlightAware ADS-B
Tue 03:37:27 PM 39.6780 -93.8660 64° Northeast 477 549 39,000  Level FlightAware ADS-B
Tue 03:38:14 PM 39.7220 -93.7440 65° Northeast 477 549 39,000  Level FlightAware ADS-B
Tue 03:38:56 PM 39.7620 -93.6360 64° Northeast 478 550 39,000  Level FlightAware ADS-B
Tue 03:39:36 PM 39.8000 -93.5310 65° Northeast 479 551 39,000  Level FlightAware ADS-B
Tue 03:40:18 PM 39.8390 -93.4230 65° Northeast 479 551 39,000  Level FlightAware ADS-B
Tue 03:41:02 PM 39.8810 -93.3070 65° Northeast 479 551 39,000  Level FlightAware ADS-B
Tue 03:41:43 PM 39.9190 -93.2010 65° Northeast 480 552 39,000  Level FlightAware ADS-B
Tue 03:42:22 PM 39.9550 -93.0990 65° Northeast 479 551 39,000  Level FlightAware ADS-B
Tue 03:43:06 PM 39.9960 -92.9840 65° Northeast 479 551 39,000  Level FlightAware ADS-B
Tue 03:43:50 PM 40.0370 -92.8690 65° Northeast 478 550 39,000  Level FlightAware ADS-B
Tue 03:44:32 PM 40.0760 -92.7590 65° Northeast 479 551 39,000  Level FlightAware ADS-B
Tue 03:45:10 PM 40.1100 -92.6620 65° Northeast 478 550 39,000  Level FlightAware ADS-B
Tue 03:45:56 PM 40.1540 -92.5390 65° Northeast 478 550 39,000  Level FlightAware ADS-B
Tue 03:46:31 PM 40.1870 -92.4480 65° Northeast 478 550 39,000  Level FlightAware ADS-B
Tue 03:47:16 PM 40.2300 -92.3310 64° Northeast 478 550 39,000  Level FlightAware ADS-B
Tue 03:48:01 PM 40.2720 -92.2130 65° Northeast 480 552 39,000  Level FlightAware ADS-B
Tue 03:48:57 PM 40.3210 -92.0740 65° Northeast 480 552 39,000  Level FlightAware ADS-B
Tue 03:49:37 PM 40.3630 -91.9580 65° Northeast 483 556 39,000 -419 Level FlightAware ADS-B
Tue 03:50:23 PM 40.4060 -91.8370 65° Northeast 483 556 38,400 -1,663 Descending FlightAware ADS-B
Tue 03:51:18 PM 40.4570 -91.6900 65° Northeast 483 556 36,200 -2,274 Descending FlightAware ADS-B
Tue 03:51:58 PM 40.4910 -91.5880 66° East 478 550 34,800 -2,268 Descending FlightAware ADS-B
Tue 03:52:40 PM 40.5290 -91.4760 66° East 479 551 33,100 -1,286 Descending FlightAware ADS-B
Tue 03:53:22 PM 40.5680 -91.3620 66° East 491 565 33,000 -61 Descending FlightAware ADS-B
Tue 03:54:19 PM 40.6230 -91.2020 66° East 494 568 33,000  Level FlightAware ADS-B
Tue 03:55:00 PM 40.6600 -91.0920 66° East 496 571 33,000  Level FlightAware ADS-B
Tue 03:55:26 PM 40.6840 -91.0240 65° Northeast 493 567 33,000  Level FlightAware ADS-B
Tue 03:56:02 PM 40.7190 -90.9200 66° East 495 570 33,000  Level FlightAware ADS-B
Tue 03:56:48 PM 40.7610 -90.7960 66° East 496 571 33,000  Level FlightAware ADS-B
Tue 03:57:28 PM 40.7980 -90.6840 66° East 496 571 33,000  Level FlightAware ADS-B
Tue 03:57:58 PM 40.8260 -90.6020 66° East 497 572 33,000  Level FlightAware ADS-B
Tue 03:58:55 PM 40.8790 -90.4430 66° East 498 573 33,000 -121 Level FlightAware ADS-B
Tue 03:59:37 PM 40.9180 -90.3250 66° East 499 574 32,800 -1,556 Descending FlightAware ADS-B
Tue 04:00:16 PM 40.9550 -90.2140 66° East 504 580 30,900 -2,593 Descending FlightAware ADS-B
Tue 04:00:58 PM 40.9920 -90.1020 66° East 497 572 29,300 -2,195 Descending FlightAware ADS-B
Tue 04:01:38 PM 41.0300 -89.9860 66° East 485 558 27,900 -1,786 Descending FlightAware ADS-B
Tue 04:02:22 PM 41.0680 -89.8710 66° East 460 529 26,800 -1,571 Descending FlightAware ADS-B
Tue 04:03:02 PM 41.1000 -89.7710 67° East 435 501 25,700 -1,537 Descending FlightAware ADS-B
Tue 04:03:44 PM 41.1310 -89.6760 67° East 407 468 24,700 -1,229 Descending FlightAware ADS-B
Tue 04:04:25 PM 41.1620 -89.5830 66° East 381 438 24,000 -1,535 Descending FlightAware ADS-B
Tue 04:05:10 PM 41.1990 -89.4910 62° Northeast 383 441 22,500 -1,952 Descending FlightAware ADS-B
Tue 04:05:48 PM 41.2320 -89.4110 61° Northeast 381 438 21,300 -1,800 Descending FlightAware ADS-B
Tue 04:06:30 PM 41.2660 -89.3250 62° Northeast 377 434 20,100 -1,814 Descending FlightAware ADS-B
Tue 04:07:14 PM 41.3020 -89.2350 62° Northeast 366 421 18,700 -1,800 Descending FlightAware ADS-B
Tue 04:07:50 PM 41.3300 -89.1660 62° Northeast 356 410 17,700 -1,744 Descending FlightAware ADS-B
Tue 04:08:40 PM 41.3680 -89.0700 62° Northeast 353 406 16,200 -1,714 Descending FlightAware ADS-B
Tue 04:09:14 PM 41.3940 -89.0050 62° Northeast 356 410 15,300 -1,650 Descending FlightAware ADS-B
Tue 04:10:00 PM 41.4300 -88.9160 62° Northeast 352 405 14,000 -1,733 Descending FlightAware ADS-B
Tue 04:10:44 PM 41.4630 -88.8330 62° Northeast 343 395 12,700 -1,674 Descending FlightAware ADS-B
Tue 04:11:26 PM 41.4930 -88.7570 62° Northeast 324 373 11,600 -1,403 Descending FlightAware ADS-B
Tue 04:12:01 PM 41.5150 -88.7010 62° Northeast 312 359 10,900 -494 Descending FlightAware ADS-B
Tue 04:12:51 PM 41.5500 -88.6120 62° Northeast 303 349 10,900 -258 Level FlightAware ADS-B
Tue 04:13:34 PM 41.5740 -88.5390 66° East 308 354 10,500 -845 Descending FlightAware ADS-B
Tue 04:14:02 PM 41.5910 -88.4900 65° Northeast 305 351 9,900 -1,393 Descending FlightAware ADS-B
Tue 04:14:30 PM 41.6070 -88.4420 66° East 302 348 9,200 -1,309 Descending FlightAware ADS-B
Tue 04:14:57 PM 41.6220 -88.3970 66° East 292 336 8,700 -1,000 Descending FlightAware ADS-B
Tue 04:15:24 PM 41.6370 -88.3550 64° Northeast 275 316 8,300 -873 Descending FlightAware ADS-B
Tue 04:15:52 PM 41.6510 -88.3140 65° Northeast 250 288 7,900 -931 Descending FlightAware ADS-B
Tue 04:16:22 PM 41.6650 -88.2720 66° East 234 269 7,400 -889 Descending FlightAware ADS-B
Tue 04:16:46 PM 41.6750 -88.2420 66° East 225 259 7,100 -600 Descending FlightAware ADS-B
Tue 04:17:02 PM 41.6830 -88.2240 59° Northeast 210 242 7,000 -818 Descending FlightAware ADS-B
Tue 04:17:30 PM 41.7010 -88.1970 48° Northeast 201 231 6,500 -1,000 Descending FlightAware ADS-B
Tue 04:17:44 PM 41.7100 -88.1850 45° Northeast 198 228 6,300 -1,091 Descending FlightAware ADS-B
Tue 04:18:14 PM 41.7310 -88.1610 40° Northeast 195 224 5,700 -1,263 Descending FlightAware ADS-B
Tue 04:18:41 PM 41.7490 -88.1400 41° Northeast 195 224 5,100 -1,179 Descending FlightAware ADS-B
Tue 04:19:10 PM 41.7680 -88.1180 41° Northeast 192 221 4,600 -906 Descending FlightAware ADS-B
Tue 04:19:34 PM 41.7850 -88.0990 40° Northeast 186 214 4,300 -577 Descending FlightAware ADS-B
Tue 04:20:02 PM 41.8030 -88.0770 42° Northeast 184 212 4,100 -400 Descending FlightAware ADS-B
Tue 04:20:19 PM 41.8120 -88.0670 40° Northeast 184 212 4,000 -558 Descending FlightAware ADS-B
Tue 04:20:45 PM 41.8300 -88.0450 42° Northeast 186 214 3,700 -764 Descending FlightAware ADS-B
Tue 04:21:14 PM 41.8490 -88.0230 41° Northeast 182 209 3,300 -915 Descending FlightAware ADS-B
Tue 04:21:44 PM 41.8670 -88.0020 41° Northeast 167 192 2,800 -931 Descending FlightAware ADS-B
Tue 04:22:12 PM 41.8820 -87.9830 43° Northeast 159 183 2,400 -792 Descending FlightAware ADS-B
Tue 04:22:37 PM 41.8940 -87.9700 39° Northeast 154 177 2,100 -857 Descending FlightAware ADS-B
Tue 04:22:54 PM 41.9050 -87.9570 41° Northeast 147 169 1,800 -789 Descending FlightAware ADS-B
Tue 04:23:15 PM 41.9150 -87.9450 42° Northeast 136 157 1,600 -615 Descending FlightAware ADS-B
Tue 04:23:33 PM 41.9230 -87.9350 43° Northeast 128 147 1,400 -732 Descending FlightAware ADS-B
Tue 04:23:56 PM 41.9330 -87.9230 42° Northeast 128 147 1,100 -712 Descending FlightAware ADS-B
Tue 04:24:32 PM 41.9490 -87.9040 41° Northeast 128 147 700 -667 Descending FlightAware ADS-B
Tue 04:24:59 PM 41.9610 -87.8910 39° Northeast 86 99 -1,556 Descending FlightAware ADS-B

Login

Don't have an account? Register now (free) for customized features, flight alerts, and more!